createdAt,value
2018-03-08T00:01:16.103Z,23.37
2018-03-08T00:03:45.287Z,23.40
2018-03-08T00:06:14.148Z,21.60
2018-03-08T00:08:43.033Z,23.27
2018-03-08T00:11:11.912Z,21.63
2018-03-08T00:13:40.791Z,21.87
2018-03-08T00:16:09.654Z,22.70
2018-03-08T00:18:38.543Z,24.83
2018-03-08T00:21:07.403Z,24.27
2018-03-08T00:23:36.300Z,21.43
2018-03-08T00:26:05.177Z,23.70
2018-03-08T00:28:34.046Z,22.43
2018-03-08T00:31:02.922Z,22.07
2018-03-08T00:33:31.783Z,23.70
2018-03-08T00:36:00.664Z,24.20
2018-03-08T00:38:29.536Z,21.83
2018-03-08T00:40:58.414Z,24.93
2018-03-08T00:43:27.276Z,20.63
2018-03-08T00:45:56.172Z,20.93
2018-03-08T00:48:25.032Z,19.90
2018-03-08T00:50:53.943Z,21.33
2018-03-08T00:53:22.812Z,19.60
2018-03-08T00:55:51.703Z,20.47
2018-03-08T00:58:20.565Z,19.80
2018-03-08T01:00:49.452Z,22.83
2018-03-08T01:03:18.322Z,19.47
2018-03-08T01:05:47.231Z,19.93
2018-03-08T01:08:16.100Z,20.83
2018-03-08T01:10:44.968Z,19.73
2018-03-08T01:13:13.918Z,19.67
2018-03-08T01:15:42.781Z,20.27
2018-03-08T01:18:11.668Z,19.93
2018-03-08T01:20:40.541Z,21.07
2018-03-08T01:23:09.432Z,20.50
2018-03-08T01:25:38.302Z,19.90
2018-03-08T01:28:07.197Z,19.63
2018-03-08T01:30:36.059Z,20.00
2018-03-08T01:33:05.024Z,20.03
2018-03-08T01:35:33.894Z,18.73
2018-03-08T01:38:02.767Z,19.90
2018-03-08T01:40:31.718Z,19.77
2018-03-08T01:43:00.605Z,17.50
2018-03-08T01:45:29.483Z,18.23
2018-03-08T01:47:58.339Z,19.30
2018-03-08T01:50:27.223Z,18.30
2018-03-08T01:52:56.087Z,18.50
2018-03-08T01:55:24.981Z,19.57
2018-03-08T01:57:53.875Z,18.53
2018-03-08T02:00:22.756Z,19.87
2018-03-08T02:02:51.617Z,17.90
2018-03-08T02:05:20.509Z,18.40
2018-03-08T02:07:49.367Z,20.80
2018-03-08T02:10:18.275Z,19.00
2018-03-08T02:12:47.134Z,19.27
2018-03-08T02:15:15.997Z,18.00
2018-03-08T02:17:44.888Z,18.73
2018-03-08T02:20:13.755Z,19.33
2018-03-08T02:22:42.659Z,18.07
2018-03-08T02:25:11.523Z,17.93
2018-03-08T02:27:40.398Z,17.80
2018-03-08T02:30:09.259Z,18.60
2018-03-08T02:32:38.138Z,19.37
2018-03-08T02:35:07.003Z,20.07
2018-03-08T02:37:35.878Z,18.07
2018-03-08T02:40:04.743Z,19.43
2018-03-08T02:42:33.645Z,19.97
2018-03-08T02:45:02.513Z,18.93
2018-03-08T02:47:31.375Z,19.03
2018-03-08T02:50:00.261Z,18.53
2018-03-08T02:52:29.142Z,18.83
2018-03-08T02:54:58.026Z,19.83
2018-03-08T02:57:26.896Z,19.60
2018-03-08T02:59:55.778Z,20.80
2018-03-08T03:02:24.650Z,19.20
2018-03-08T03:04:53.541Z,21.27
2018-03-08T03:07:22.408Z,21.50
2018-03-08T03:09:51.332Z,21.37
2018-03-08T03:12:20.178Z,19.77
2018-03-08T03:14:49.074Z,19.63
2018-03-08T03:17:17.953Z,21.27
2018-03-08T03:19:46.908Z,20.23
2018-03-08T03:22:15.785Z,19.67
2018-03-08T03:24:44.736Z,20.80
2018-03-08T03:27:13.639Z,21.70
2018-03-08T03:29:42.564Z,18.97
2018-03-08T03:32:11.451Z,21.87
2018-03-08T03:34:40.332Z,21.90
2018-03-08T03:37:09.238Z,20.80
2018-03-08T03:39:38.105Z,21.37
2018-03-08T03:42:06.998Z,22.13
2018-03-08T03:44:35.877Z,20.97
2018-03-08T03:47:04.759Z,21.97
2018-03-08T03:49:33.628Z,21.90
2018-03-08T03:52:02.514Z,21.47
2018-03-08T03:54:31.380Z,21.33
2018-03-08T03:57:00.288Z,21.10
2018-03-08T03:59:29.178Z,22.53
2018-03-08T04:01:58.066Z,21.80
2018-03-08T04:04:26.946Z,22.30
2018-03-08T04:06:55.806Z,22.20
2018-03-08T04:09:24.678Z,22.83
2018-03-08T04:11:53.562Z,23.00
2018-03-08T04:14:22.434Z,21.77
2018-03-08T04:16:51.303Z,23.03
2018-03-08T04:19:20.192Z,23.07
2018-03-08T04:21:49.207Z,23.07
2018-03-08T04:24:18.089Z,24.40
2018-03-08T04:26:46.951Z,24.10
2018-03-08T04:29:15.837Z,21.63
2018-03-08T04:31:44.714Z,21.53
2018-03-08T04:34:13.633Z,22.37
2018-03-08T04:36:42.504Z,21.60
2018-03-08T04:39:11.394Z,22.77
2018-03-08T04:41:40.288Z,23.00
2018-03-08T04:44:09.138Z,22.27
2018-03-08T04:46:38.284Z,21.50
2018-03-08T04:49:07.174Z,22.80
2018-03-08T04:51:36.067Z,22.60
2018-03-08T04:54:04.930Z,23.80
2018-03-08T04:56:33.834Z,23.03
2018-03-08T04:59:02.694Z,20.50
2018-03-08T05:01:31.583Z,22.03
2018-03-08T05:04:00.450Z,22.43
2018-03-08T05:06:29.339Z,21.77
2018-03-08T05:08:58.203Z,21.97
2018-03-08T05:11:27.080Z,21.73
2018-03-08T05:13:56.757Z,22.07
2018-03-08T05:16:25.644Z,22.67
2018-03-08T05:18:54.507Z,20.87
2018-03-08T05:21:23.400Z,20.70
2018-03-08T05:23:52.279Z,22.50
2018-03-08T05:26:21.150Z,23.30
2018-03-08T05:28:50.037Z,23.23
2018-03-08T05:31:18.908Z,23.37
2018-03-08T05:33:47.782Z,23.10
2018-03-08T05:36:16.670Z,21.80
2018-03-08T05:38:45.546Z,21.77
2018-03-08T05:41:14.417Z,21.63
2018-03-08T05:43:43.300Z,21.50
2018-03-08T05:46:12.193Z,22.83
2018-03-08T05:48:41.134Z,21.57
2018-03-08T05:51:09.974Z,21.23
2018-03-08T05:53:38.885Z,23.10
2018-03-08T05:56:07.766Z,20.37
2018-03-08T05:58:36.651Z,21.60
2018-03-08T06:01:05.530Z,23.80
2018-03-08T06:03:34.413Z,21.27
2018-03-08T06:06:03.290Z,21.43
2018-03-08T06:08:32.180Z,21.70
2018-03-08T06:11:01.076Z,21.50
2018-03-08T06:13:29.969Z,21.00
2018-03-08T06:15:58.837Z,21.60
2018-03-08T06:18:27.738Z,22.47
2018-03-08T06:20:56.617Z,21.63
2018-03-08T06:23:25.579Z,20.90
2018-03-08T06:25:54.476Z,21.93
2018-03-08T06:28:23.382Z,21.90
2018-03-08T06:30:52.290Z,21.17
2018-03-08T06:33:21.262Z,21.13
2018-03-08T06:35:50.139Z,21.50
2018-03-08T06:38:19.292Z,21.40
2018-03-08T06:40:48.165Z,21.40
2018-03-08T06:43:17.075Z,20.63
2018-03-08T06:45:46.006Z,21.87
2018-03-08T06:48:14.921Z,21.03
2018-03-08T06:50:43.832Z,19.33
2018-03-08T06:53:12.707Z,21.57
2018-03-08T06:55:41.601Z,19.30
2018-03-08T06:58:10.501Z,19.17
2018-03-08T07:00:39.408Z,19.90
2018-03-08T07:03:08.285Z,18.67
2018-03-08T07:05:37.166Z,20.33
2018-03-08T07:08:06.053Z,19.03
2018-03-08T07:10:34.973Z,19.73
2018-03-08T07:13:03.861Z,18.10
2018-03-08T07:15:32.723Z,18.37
2018-03-08T07:18:01.617Z,19.13
2018-03-08T07:20:30.506Z,19.23
2018-03-08T07:22:59.411Z,18.97
2018-03-08T07:25:28.398Z,18.50
2018-03-08T07:27:57.352Z,18.10
2018-03-08T07:30:26.299Z,19.03
2018-03-08T07:32:55.200Z,18.27
2018-03-08T07:35:24.077Z,18.50
2018-03-08T07:37:52.971Z,18.40
2018-03-08T07:40:21.869Z,18.67
2018-03-08T07:42:50.769Z,16.70
2018-03-08T07:45:19.643Z,17.13
2018-03-08T07:47:48.540Z,18.83
2018-03-08T07:50:17.459Z,19.80
2018-03-08T07:52:46.350Z,20.23
2018-03-08T07:55:15.231Z,18.70
2018-03-08T07:57:44.130Z,18.00
2018-03-08T08:00:13.028Z,18.23
2018-03-08T08:02:41.939Z,19.13
2018-03-08T08:05:16.580Z,17.60
2018-03-08T08:07:51.196Z,18.10
2018-03-08T08:10:20.068Z,16.80
2018-03-08T08:12:48.931Z,16.10
2018-03-08T08:15:17.825Z,15.33
2018-03-08T08:17:46.711Z,13.97
2018-03-08T08:20:15.628Z,16.27
2018-03-08T08:22:44.793Z,14.27
2018-03-08T08:25:13.752Z,14.63
2018-03-08T08:27:42.642Z,14.30
2018-03-08T08:30:11.581Z,14.27
2018-03-08T08:32:40.468Z,14.77
2018-03-08T08:35:09.377Z,13.50
2018-03-08T08:37:38.251Z,12.43
2018-03-08T08:40:07.161Z,12.90
2018-03-08T08:42:36.044Z,13.63
2018-03-08T08:45:04.961Z,12.10
2018-03-08T08:47:33.854Z,12.90
2018-03-08T08:50:02.763Z,13.37
2018-03-08T08:52:31.650Z,13.03
2018-03-08T08:55:00.574Z,13.23
2018-03-08T08:57:29.479Z,13.70
2018-03-08T08:59:58.351Z,14.07
2018-03-08T09:02:27.276Z,15.47
2018-03-08T09:04:56.146Z,12.03
2018-03-08T09:07:25.048Z,12.37
2018-03-08T09:09:53.915Z,12.87
2018-03-08T09:12:22.840Z,12.20
2018-03-08T09:14:51.696Z,9.90
2018-03-08T09:17:20.594Z,11.60
2018-03-08T09:19:49.475Z,12.10
2018-03-08T09:22:18.405Z,12.73
2018-03-08T09:24:47.280Z,11.80
2018-03-08T09:27:16.186Z,10.23
2018-03-08T09:29:45.059Z,11.53
2018-03-08T09:32:13.947Z,11.30
2018-03-08T09:34:42.829Z,10.50
2018-03-08T09:37:11.734Z,9.37
2018-03-08T09:39:40.606Z,9.67
2018-03-08T09:42:09.498Z,9.97
2018-03-08T09:44:38.392Z,9.40
2018-03-08T09:47:07.263Z,8.80
2018-03-08T09:49:36.214Z,9.63
2018-03-08T09:52:05.104Z,10.07
2018-03-08T09:54:33.994Z,9.10
2018-03-08T09:57:02.868Z,9.47
2018-03-08T09:59:31.759Z,9.50
2018-03-08T10:02:00.625Z,8.53
2018-03-08T10:04:29.512Z,9.03
2018-03-08T10:06:58.378Z,8.97
2018-03-08T10:09:27.278Z,8.73
2018-03-08T10:11:56.149Z,8.30
2018-03-08T10:14:25.039Z,9.00
2018-03-08T10:16:53.912Z,9.70
2018-03-08T10:19:22.829Z,9.50
2018-03-08T10:21:51.752Z,10.57
2018-03-08T10:24:20.642Z,10.73
2018-03-08T10:26:49.547Z,12.77
2018-03-08T10:29:18.435Z,11.10
2018-03-08T10:31:47.329Z,13.13
2018-03-08T10:34:16.216Z,12.90
2018-03-08T10:36:45.118Z,12.47
2018-03-08T10:44:11.766Z,12.30
2018-03-08T10:46:40.678Z,14.47
2018-03-08T10:49:09.564Z,12.77
2018-03-08T10:51:38.498Z,13.33
2018-03-08T10:54:07.382Z,13.47
2018-03-08T10:56:36.304Z,12.70
2018-03-08T10:59:05.189Z,14.07
2018-03-08T11:01:34.075Z,13.87
2018-03-08T11:04:08.600Z,12.40
2018-03-08T11:06:37.489Z,13.00
2018-03-08T11:09:06.384Z,15.60
2018-03-08T11:11:35.278Z,15.03
2018-03-08T11:14:04.163Z,15.07
2018-03-08T11:16:33.076Z,15.70
2018-03-08T11:19:01.969Z,15.30
2018-03-08T11:21:30.870Z,16.23
2018-03-08T11:23:59.747Z,15.87
2018-03-08T11:26:28.646Z,16.57
2018-03-08T11:28:57.529Z,15.33
2018-03-08T11:31:26.402Z,18.73
2018-03-08T11:33:55.297Z,15.60
2018-03-08T11:36:24.164Z,16.63
2018-03-08T11:38:53.065Z,16.37
2018-03-08T11:41:23.145Z,16.33
2018-03-08T11:43:50.874Z,17.77
2018-03-08T11:46:19.780Z,15.57
2018-03-08T11:48:48.684Z,16.57
2018-03-08T11:51:17.581Z,18.60
2018-03-08T11:53:46.506Z,16.17
2018-03-08T11:56:15.396Z,16.57
2018-03-08T11:58:44.289Z,17.20
2018-03-08T12:01:13.183Z,15.07
2018-03-08T12:03:42.124Z,16.03
2018-03-08T12:06:11.024Z,16.73
2018-03-08T12:08:39.948Z,15.30
2018-03-08T12:11:08.851Z,12.40
2018-03-08T12:13:37.759Z,12.40
2018-03-08T12:16:06.695Z,13.07
2018-03-08T12:18:35.583Z,9.40
2018-03-08T12:21:04.476Z,14.80
2018-03-08T12:23:33.405Z,15.37
2018-03-08T12:26:02.443Z,14.17
2018-03-08T12:28:31.337Z,13.57
2018-03-08T12:31:00.273Z,15.00
2018-03-08T12:33:29.202Z,14.47
2018-03-08T12:35:58.135Z,16.70
2018-03-08T12:38:27.129Z,16.17
2018-03-08T12:40:56.106Z,15.27
2018-03-08T12:43:24.997Z,14.17
2018-03-08T12:45:53.913Z,14.80
2018-03-08T12:48:22.813Z,15.27
2018-03-08T12:50:51.724Z,13.20
2018-03-08T12:53:20.645Z,14.80
2018-03-08T12:55:49.549Z,14.77
2018-03-08T12:58:18.555Z,14.70
2018-03-08T13:00:47.497Z,15.30
2018-03-08T13:03:16.664Z,15.47
2018-03-08T13:05:45.593Z,14.40
2018-03-08T13:08:14.492Z,14.40
2018-03-08T13:10:43.380Z,14.70
2018-03-08T13:13:12.292Z,14.00
2018-03-08T13:15:41.155Z,15.40
2018-03-08T13:18:10.064Z,12.10
2018-03-08T13:20:38.935Z,14.47
2018-03-08T13:23:07.820Z,13.73
2018-03-08T13:25:36.697Z,12.50
2018-03-08T13:28:05.588Z,13.03
2018-03-08T13:30:34.487Z,14.17
2018-03-08T13:33:03.387Z,13.67
2018-03-08T13:35:32.293Z,13.30
2018-03-08T13:38:01.177Z,12.53
2018-03-08T13:40:30.098Z,12.27
2018-03-08T13:42:58.983Z,12.33
2018-03-08T13:45:27.921Z,12.57
2018-03-08T13:47:56.799Z,11.50
2018-03-08T13:50:25.698Z,12.03
2018-03-08T13:52:54.597Z,11.97
2018-03-08T13:55:23.492Z,11.23
2018-03-08T13:57:52.373Z,11.70
2018-03-08T14:00:21.291Z,10.70
2018-03-08T14:02:50.250Z,11.67
2018-03-08T14:05:19.134Z,9.30
2018-03-08T14:07:48.045Z,10.60
2018-03-08T14:10:16.943Z,11.03
2018-03-08T14:12:45.853Z,10.37
2018-03-08T14:15:14.718Z,8.83
2018-03-08T14:17:43.619Z,8.43
2018-03-08T14:20:12.530Z,8.40
2018-03-08T14:22:41.384Z,7.27
2018-03-08T14:25:10.270Z,8.10
2018-03-08T14:27:39.148Z,8.10
2018-03-08T14:30:08.038Z,9.07
2018-03-08T14:32:36.943Z,8.27
2018-03-08T14:35:05.853Z,9.13
2018-03-08T14:37:34.732Z,8.97
2018-03-08T14:40:03.770Z,7.63
2018-03-08T14:42:32.643Z,7.90
2018-03-08T14:45:01.515Z,7.87
2018-03-08T14:47:30.404Z,8.93
2018-03-08T14:49:59.275Z,8.20
2018-03-08T14:52:28.166Z,7.67
2018-03-08T14:54:57.047Z,6.20
2018-03-08T14:57:25.986Z,7.57
2018-03-08T14:59:54.890Z,6.27
2018-03-08T15:02:23.789Z,5.70
2018-03-08T15:04:52.671Z,5.80
2018-03-08T15:07:21.555Z,5.43
2018-03-08T15:09:50.440Z,5.43
2018-03-08T15:12:19.308Z,8.07
2018-03-08T15:14:48.195Z,5.20
2018-03-08T15:17:17.121Z,7.00
2018-03-08T15:19:46.002Z,3.30
2018-03-08T15:22:14.878Z,3.20
2018-03-08T15:24:43.770Z,4.00
2018-03-08T15:27:12.638Z,4.30
2018-03-08T15:29:41.535Z,4.40
2018-03-08T15:32:10.415Z,5.00
2018-03-08T15:34:39.357Z,6.50
2018-03-08T15:37:08.253Z,6.47
2018-03-08T15:39:37.157Z,6.10
2018-03-08T15:42:06.042Z,6.20
2018-03-08T15:44:34.926Z,6.30
2018-03-08T15:47:03.822Z,6.90
2018-03-08T15:49:32.716Z,6.00
2018-03-08T15:52:01.638Z,6.33
2018-03-08T15:54:30.539Z,6.13
2018-03-08T15:56:59.430Z,6.97
2018-03-08T15:59:28.326Z,5.60
2018-03-08T16:01:57.235Z,6.30
2018-03-08T16:04:26.102Z,5.60
2018-03-08T16:07:09.891Z,10.57
2018-03-08T16:09:44.506Z,6.97
2018-03-08T16:12:13.418Z,6.60
2018-03-08T16:14:42.301Z,7.13
2018-03-08T16:17:11.183Z,7.63
2018-03-08T16:19:40.055Z,6.73
2018-03-08T16:22:08.928Z,7.60
2018-03-08T16:24:37.823Z,7.30
2018-03-08T16:27:06.727Z,7.50
2018-03-08T16:29:35.606Z,7.83
2018-03-08T16:32:04.503Z,7.67
2018-03-08T16:34:33.394Z,7.00
2018-03-08T16:37:02.281Z,6.43
2018-03-08T16:39:31.154Z,6.63
2018-03-08T16:42:00.021Z,7.80
2018-03-08T16:44:28.915Z,7.57
2018-03-08T16:46:57.795Z,7.97
2018-03-08T16:49:26.692Z,7.17
2018-03-08T16:51:55.610Z,6.83
2018-03-08T16:54:24.495Z,7.10
2018-03-08T16:56:53.343Z,7.90
2018-03-08T16:59:22.239Z,7.77
2018-03-08T17:01:51.102Z,6.67
2018-03-08T17:04:19.992Z,8.67
2018-03-08T17:06:48.851Z,7.57
2018-03-08T17:09:17.788Z,7.17
2018-03-08T17:11:46.662Z,5.77
2018-03-08T17:14:15.539Z,7.63
2018-03-08T17:16:44.403Z,6.97
2018-03-08T17:19:13.284Z,5.90
2018-03-08T17:21:42.166Z,6.10
2018-03-08T17:24:11.056Z,5.47
2018-03-08T17:26:39.920Z,6.37
2018-03-08T17:29:08.801Z,6.27
2018-03-08T17:31:37.684Z,6.50
2018-03-08T17:34:06.583Z,6.93
2018-03-08T17:36:35.462Z,5.60
2018-03-08T17:39:04.345Z,6.27
2018-03-08T17:41:33.229Z,6.33
2018-03-08T17:44:02.207Z,5.93
2018-03-08T17:46:31.078Z,5.60
2018-03-08T17:48:59.993Z,5.10
2018-03-08T17:51:28.875Z,7.07
2018-03-08T17:53:57.781Z,6.40
2018-03-08T17:56:26.655Z,5.83
2018-03-08T17:58:55.539Z,6.13
2018-03-08T18:01:24.420Z,6.50
2018-03-08T18:03:53.275Z,5.80
2018-03-08T18:06:22.148Z,6.07
2018-03-08T18:08:51.012Z,5.80
2018-03-08T18:11:19.882Z,5.90
2018-03-08T18:13:48.743Z,5.30
2018-03-08T18:16:17.631Z,6.07
2018-03-08T18:18:46.508Z,5.63
2018-03-08T18:21:15.391Z,6.03
2018-03-08T18:23:44.249Z,7.17
2018-03-08T18:26:13.131Z,5.13
2018-03-08T18:28:42.022Z,6.07
2018-03-08T18:31:10.894Z,5.80
2018-03-08T18:33:39.755Z,6.00
2018-03-08T18:36:08.679Z,5.20
2018-03-08T18:38:37.563Z,5.40
2018-03-08T18:41:06.473Z,5.37
2018-03-08T18:43:35.327Z,5.13
2018-03-08T18:46:04.193Z,5.20
2018-03-08T18:48:33.078Z,5.97
2018-03-08T18:51:01.939Z,5.10
2018-03-08T18:53:30.811Z,5.27
2018-03-08T18:55:59.698Z,5.10
2018-03-08T18:58:28.576Z,5.83
2018-03-08T19:00:57.441Z,5.37
2018-03-08T19:03:26.496Z,5.97
2018-03-08T19:05:55.370Z,5.40
2018-03-08T19:08:24.297Z,4.50
2018-03-08T19:10:53.164Z,5.13
2018-03-08T19:13:22.069Z,5.27
2018-03-08T19:15:50.935Z,4.37
2018-03-08T19:18:19.811Z,5.23
2018-03-08T19:20:48.679Z,4.50
2018-03-08T19:23:17.628Z,4.30
2018-03-08T19:25:46.456Z,5.30
2018-03-08T19:28:15.309Z,5.53
2018-03-08T19:30:44.188Z,6.00
2018-03-08T19:33:13.048Z,4.80
2018-03-08T19:35:41.934Z,5.57
2018-03-08T19:38:10.792Z,4.73
2018-03-08T19:40:39.659Z,5.70
2018-03-08T19:43:08.524Z,5.33
2018-03-08T19:45:37.411Z,5.60
2018-03-08T19:48:06.281Z,5.13
2018-03-08T19:50:35.151Z,5.30
2018-03-08T19:53:04.041Z,5.50
2018-03-08T19:55:33.008Z,5.20
2018-03-08T19:58:01.953Z,5.53
2018-03-08T20:00:30.849Z,5.57
2018-03-08T20:02:59.716Z,4.70
2018-03-08T20:05:28.608Z,4.80
2018-03-08T20:07:57.479Z,4.80
2018-03-08T20:10:26.361Z,4.23
2018-03-08T20:12:55.558Z,5.70
2018-03-08T20:15:24.631Z,4.60
2018-03-08T20:17:53.523Z,5.13
2018-03-08T20:20:22.401Z,4.63
2018-03-08T20:22:51.255Z,4.30
2018-03-08T20:25:20.139Z,4.37
2018-03-08T20:27:49.092Z,5.00
2018-03-08T20:30:17.983Z,4.13
2018-03-08T20:32:46.870Z,5.10
2018-03-08T20:35:15.801Z,5.30
2018-03-08T20:37:44.677Z,5.13
2018-03-08T20:40:13.592Z,4.43
2018-03-08T20:42:42.464Z,3.70
2018-03-08T20:45:11.358Z,4.17
2018-03-08T20:47:40.227Z,3.87
2018-03-08T20:50:09.104Z,4.40
2018-03-08T20:52:37.995Z,4.53
2018-03-08T20:55:06.847Z,4.30
2018-03-08T20:57:35.737Z,4.20
2018-03-08T21:00:04.610Z,4.63
2018-03-08T21:02:33.522Z,4.30
2018-03-08T21:05:02.392Z,4.30
2018-03-08T21:07:31.380Z,4.30
2018-03-08T21:10:00.239Z,3.70
2018-03-08T21:12:29.136Z,3.93
2018-03-08T21:14:57.999Z,3.43
2018-03-08T21:17:26.872Z,4.10
2018-03-08T21:19:55.743Z,3.93
2018-03-08T21:22:24.595Z,3.60
2018-03-08T21:24:53.521Z,3.77
2018-03-08T21:27:22.671Z,3.77
2018-03-08T21:29:51.572Z,3.57
2018-03-08T21:32:20.444Z,4.77
2018-03-08T21:34:49.315Z,4.70
2018-03-08T21:37:18.163Z,4.30
2018-03-08T21:39:47.077Z,5.20
2018-03-08T21:42:15.926Z,3.40
2018-03-08T21:44:44.871Z,4.20
2018-03-08T21:47:13.865Z,4.57
2018-03-08T21:49:42.758Z,4.10
2018-03-08T21:52:11.627Z,4.17
2018-03-08T21:54:40.607Z,4.17
2018-03-08T21:57:09.623Z,4.03
2018-03-08T21:59:38.503Z,4.20
2018-03-08T22:02:07.367Z,4.07
2018-03-08T22:04:36.363Z,3.90
2018-03-08T22:07:05.251Z,4.63
2018-03-08T22:09:34.106Z,4.03
2018-03-08T22:12:03.057Z,4.10
2018-03-08T22:14:31.928Z,3.73
2018-03-08T22:17:00.811Z,3.63
2018-03-08T22:19:29.682Z,3.67
2018-03-08T22:21:58.673Z,3.83
2018-03-08T22:24:27.583Z,4.23
2018-03-08T22:26:56.497Z,4.07
2018-03-08T22:29:25.407Z,3.73
2018-03-08T22:31:54.291Z,3.47
2018-03-08T22:34:23.166Z,4.03
2018-03-08T22:36:52.064Z,4.27
2018-03-08T22:39:20.926Z,4.27
2018-03-08T22:41:49.804Z,3.80
2018-03-08T22:44:18.725Z,4.33
2018-03-08T22:46:47.563Z,4.50
2018-03-08T22:49:16.429Z,3.90
2018-03-08T22:51:45.340Z,4.60
2018-03-08T22:54:14.373Z,3.83
2018-03-08T22:56:41.885Z,3.70
2018-03-08T22:59:09.422Z,2.90
2018-03-08T23:04:58.140Z,4.10
2018-03-08T23:07:25.651Z,4.33
2018-03-08T23:09:53.183Z,3.60
2018-03-08T23:12:20.702Z,3.63
2018-03-08T23:14:48.987Z,2.50
2018-03-08T23:17:16.493Z,3.60
2018-03-08T23:19:44.792Z,3.23
2018-03-08T23:22:13.088Z,3.27
2018-03-08T23:24:41.387Z,3.30
2018-03-08T23:27:08.905Z,2.93
2018-03-08T23:29:37.810Z,3.37
2018-03-08T23:32:06.678Z,2.90
2018-03-08T23:34:35.331Z,2.33
2018-03-08T23:37:02.866Z,2.90
2018-03-08T23:39:30.399Z,2.73
2018-03-08T23:41:57.941Z,2.40
2018-03-08T23:44:25.468Z,2.90
2018-03-08T23:46:53.009Z,2.30
2018-03-08T23:49:21.304Z,3.17
2018-03-08T23:51:48.846Z,2.77
2018-03-08T23:54:17.134Z,3.00
2018-03-08T23:56:45.417Z,3.60
2018-03-08T23:59:12.953Z,3.20
